sensor_id;sensor_type;location;lat;lon;timestamp;P1;durP1;ratioP1;P2;durP2;ratioP2
17345;SDS011;8790;53.590;10.002;2023-09-07T00:01:39;6.20;;;5.60;;
17345;SDS011;8790;53.590;10.002;2023-09-07T00:04:10;6.00;;;5.43;;
17345;SDS011;8790;53.590;10.002;2023-09-07T00:06:44;6.75;;;5.38;;
17345;SDS011;8790;53.590;10.002;2023-09-07T00:09:16;6.00;;;5.50;;
17345;SDS011;8790;53.590;10.002;2023-09-07T00:11:48;6.15;;;5.55;;
17345;SDS011;8790;53.590;10.002;2023-09-07T00:14:19;5.75;;;5.25;;
17345;SDS011;8790;53.590;10.002;2023-09-07T00:16:51;6.00;;;5.50;;
17345;SDS011;8790;53.590;10.002;2023-09-07T00:19:22;5.90;;;5.30;;
17345;SDS011;8790;53.590;10.002;2023-09-07T00:21:55;7.07;;;5.93;;
17345;SDS011;8790;53.590;10.002;2023-09-07T00:24:26;6.10;;;5.45;;
17345;SDS011;8790;53.590;10.002;2023-09-07T00:26:58;5.60;;;5.10;;
17345;SDS011;8790;53.590;10.002;2023-09-07T00:29:29;6.47;;;5.72;;
17345;SDS011;8790;53.590;10.002;2023-09-07T00:32:00;7.80;;;5.43;;
17345;SDS011;8790;53.590;10.002;2023-09-07T00:34:32;6.07;;;5.47;;
17345;SDS011;8790;53.590;10.002;2023-09-07T00:37:05;6.07;;;5.47;;
17345;SDS011;8790;53.590;10.002;2023-09-07T00:39:36;6.63;;;5.75;;
17345;SDS011;8790;53.590;10.002;2023-09-07T00:42:08;7.20;;;6.13;;
17345;SDS011;8790;53.590;10.002;2023-09-07T00:44:39;6.00;;;5.40;;
17345;SDS011;8790;53.590;10.002;2023-09-07T00:47:13;6.50;;;5.90;;
17345;SDS011;8790;53.590;10.002;2023-09-07T00:49:45;5.80;;;5.30;;
17345;SDS011;8790;53.590;10.002;2023-09-07T00:52:18;5.65;;;5.15;;
17345;SDS011;8790;53.590;10.002;2023-09-07T00:54:49;5.97;;;5.38;;
17345;SDS011;8790;53.590;10.002;2023-09-07T00:57:21;5.18;;;4.65;;
17345;SDS011;8790;53.590;10.002;2023-09-07T00:59:52;5.88;;;5.30;;
17345;SDS011;8790;53.590;10.002;2023-09-07T01:02:25;6.10;;;5.50;;
17345;SDS011;8790;53.590;10.002;2023-09-07T01:04:57;5.80;;;5.30;;
17345;SDS011;8790;53.590;10.002;2023-09-07T01:07:32;5.90;;;5.40;;
17345;SDS011;8790;53.590;10.002;2023-09-07T01:10:06;5.97;;;5.10;;
17345;SDS011;8790;53.590;10.002;2023-09-07T01:12:39;5.80;;;5.30;;
17345;SDS011;8790;53.590;10.002;2023-09-07T01:15:10;5.68;;;5.18;;
17345;SDS011;8790;53.590;10.002;2023-09-07T01:17:42;7.78;;;5.43;;
17345;SDS011;8790;53.590;10.002;2023-09-07T01:20:15;5.72;;;5.22;;
17345;SDS011;8790;53.590;10.002;2023-09-07T01:22:50;5.80;;;5.20;;
17345;SDS011;8790;53.590;10.002;2023-09-07T01:25:21;6.03;;;4.97;;
17345;SDS011;8790;53.590;10.002;2023-09-07T01:27:54;6.63;;;5.25;;
17345;SDS011;8790;53.590;10.002;2023-09-07T01:30:26;6.90;;;5.28;;
17345;SDS011;8790;53.590;10.002;2023-09-07T01:32:58;5.72;;;5.22;;
17345;SDS011;8790;53.590;10.002;2023-09-07T01:35:30;5.70;;;5.20;;
17345;SDS011;8790;53.590;10.002;2023-09-07T01:38:04;5.47;;;4.97;;
17345;SDS011;8790;53.590;10.002;2023-09-07T01:40:36;5.78;;;5.28;;
17345;SDS011;8790;53.590;10.002;2023-09-07T01:43:07;5.95;;;5.35;;
17345;SDS011;8790;53.590;10.002;2023-09-07T01:45:39;6.05;;;5.45;;
17345;SDS011;8790;53.590;10.002;2023-09-07T01:48:11;5.82;;;5.20;;
17345;SDS011;8790;53.590;10.002;2023-09-07T01:50:44;6.07;;;5.53;;
17345;SDS011;8790;53.590;10.002;2023-09-07T01:53:17;5.95;;;5.45;;
17345;SDS011;8790;53.590;10.002;2023-09-07T01:55:49;6.07;;;5.40;;
17345;SDS011;8790;53.590;10.002;2023-09-07T01:58:20;5.95;;;5.45;;
17345;SDS011;8790;53.590;10.002;2023-09-07T02:00:56;6.57;;;5.10;;
17345;SDS011;8790;53.590;10.002;2023-09-07T02:03:28;5.68;;;5.18;;
17345;SDS011;8790;53.590;10.002;2023-09-07T02:06:00;6.35;;;5.30;;
17345;SDS011;8790;53.590;10.002;2023-09-07T02:08:33;5.50;;;5.10;;
17345;SDS011;8790;53.590;10.002;2023-09-07T02:11:05;5.65;;;5.05;;
17345;SDS011;8790;53.590;10.002;2023-09-07T02:13:36;6.93;;;5.00;;
17345;SDS011;8790;53.590;10.002;2023-09-07T02:16:09;5.70;;;5.20;;
17345;SDS011;8790;53.590;10.002;2023-09-07T02:18:41;5.97;;;5.30;;
17345;SDS011;8790;53.590;10.002;2023-09-07T02:21:13;6.03;;;5.53;;
17345;SDS011;8790;53.590;10.002;2023-09-07T02:23:46;7.38;;;5.25;;
17345;SDS011;8790;53.590;10.002;2023-09-07T02:26:17;5.60;;;5.10;;
17345;SDS011;8790;53.590;10.002;2023-09-07T02:28:49;7.20;;;5.68;;
17345;SDS011;8790;53.590;10.002;2023-09-07T02:31:20;6.22;;;5.63;;
17345;SDS011;8790;53.590;10.002;2023-09-07T02:33:52;6.10;;;5.60;;
17345;SDS011;8790;53.590;10.002;2023-09-07T02:36:23;5.43;;;4.93;;
17345;SDS011;8790;53.590;10.002;2023-09-07T02:38:56;6.13;;;5.53;;
17345;SDS011;8790;53.590;10.002;2023-09-07T02:41:28;5.93;;;5.43;;
17345;SDS011;8790;53.590;10.002;2023-09-07T02:43:59;5.90;;;5.32;;
17345;SDS011;8790;53.590;10.002;2023-09-07T02:46:31;6.20;;;5.60;;
17345;SDS011;8790;53.590;10.002;2023-09-07T02:49:02;5.68;;;4.85;;
17345;SDS011;8790;53.590;10.002;2023-09-07T02:51:34;5.75;;;5.25;;
17345;SDS011;8790;53.590;10.002;2023-09-07T02:54:07;5.57;;;5.07;;
17345;SDS011;8790;53.590;10.002;2023-09-07T02:56:38;5.57;;;5.05;;
17345;SDS011;8790;53.590;10.002;2023-09-07T02:59:10;5.97;;;5.38;;
17345;SDS011;8790;53.590;10.002;2023-09-07T03:01:42;6.10;;;5.15;;
17345;SDS011;8790;53.590;10.002;2023-09-07T03:04:13;6.13;;;5.43;;
17345;SDS011;8790;53.590;10.002;2023-09-07T03:06:45;7.00;;;5.68;;
17345;SDS011;8790;53.590;10.002;2023-09-07T03:09:18;7.50;;;5.40;;
17345;SDS011;8790;53.590;10.002;2023-09-07T03:11:49;5.53;;;5.03;;
17345;SDS011;8790;53.590;10.002;2023-09-07T03:14:21;6.00;;;5.40;;
17345;SDS011;8790;53.590;10.002;2023-09-07T03:16:52;5.63;;;5.15;;
17345;SDS011;8790;53.590;10.002;2023-09-07T03:19:24;5.80;;;5.30;;
17345;SDS011;8790;53.590;10.002;2023-09-07T03:21:56;6.07;;;5.35;;
17345;SDS011;8790;53.590;10.002;2023-09-07T03:24:29;6.50;;;5.90;;
17345;SDS011;8790;53.590;10.002;2023-09-07T03:27:00;5.65;;;5.15;;
17345;SDS011;8790;53.590;10.002;2023-09-07T03:29:32;6.45;;;5.82;;
17345;SDS011;8790;53.590;10.002;2023-09-07T03:32:07;6.40;;;5.80;;
17345;SDS011;8790;53.590;10.002;2023-09-07T03:34:39;7.70;;;6.50;;
17345;SDS011;8790;53.590;10.002;2023-09-07T03:37:10;6.78;;;6.15;;
17345;SDS011;8790;53.590;10.002;2023-09-07T03:39:43;6.40;;;5.85;;
17345;SDS011;8790;53.590;10.002;2023-09-07T03:42:15;6.72;;;6.13;;
17345;SDS011;8790;53.590;10.002;2023-09-07T03:44:46;6.30;;;5.80;;
17345;SDS011;8790;53.590;10.002;2023-09-07T03:47:18;7.63;;;5.75;;
17345;SDS011;8790;53.590;10.002;2023-09-07T03:49:49;6.70;;;6.10;;
17345;SDS011;8790;53.590;10.002;2023-09-07T03:52:21;7.75;;;5.72;;
17345;SDS011;8790;53.590;10.002;2023-09-07T03:54:56;6.55;;;5.95;;
17345;SDS011;8790;53.590;10.002;2023-09-07T03:57:27;6.45;;;5.85;;
17345;SDS011;8790;53.590;10.002;2023-09-07T03:59:59;6.72;;;6.03;;
17345;SDS011;8790;53.590;10.002;2023-09-07T04:02:31;7.25;;;5.80;;
17345;SDS011;8790;53.590;10.002;2023-09-07T04:05:02;6.00;;;5.50;;
17345;SDS011;8790;53.590;10.002;2023-09-07T04:07:35;6.40;;;5.90;;
17345;SDS011;8790;53.590;10.002;2023-09-07T04:10:08;7.50;;;6.20;;
17345;SDS011;8790;53.590;10.002;2023-09-07T04:12:41;6.50;;;5.90;;
17345;SDS011;8790;53.590;10.002;2023-09-07T04:15:13;6.90;;;6.30;;
17345;SDS011;8790;53.590;10.002;2023-09-07T04:17:44;6.80;;;6.10;;
17345;SDS011;8790;53.590;10.002;2023-09-07T04:20:16;7.03;;;6.10;;
17345;SDS011;8790;53.590;10.002;2023-09-07T04:22:48;6.95;;;6.32;;
17345;SDS011;8790;53.590;10.002;2023-09-07T04:25:21;6.55;;;5.75;;
17345;SDS011;8790;53.590;10.002;2023-09-07T04:27:52;6.40;;;5.75;;
17345;SDS011;8790;53.590;10.002;2023-09-07T04:30:23;6.80;;;6.10;;
17345;SDS011;8790;53.590;10.002;2023-09-07T04:32:55;7.30;;;6.60;;
17345;SDS011;8790;53.590;10.002;2023-09-07T04:35:27;6.85;;;5.88;;
17345;SDS011;8790;53.590;10.002;2023-09-07T04:38:00;6.65;;;6.05;;
17345;SDS011;8790;53.590;10.002;2023-09-07T04:40:33;7.13;;;6.43;;
17345;SDS011;8790;53.590;10.002;2023-09-07T04:43:04;7.28;;;6.68;;
17345;SDS011;8790;53.590;10.002;2023-09-07T04:45:35;7.50;;;6.70;;
17345;SDS011;8790;53.590;10.002;2023-09-07T04:48:07;7.45;;;6.75;;
17345;SDS011;8790;53.590;10.002;2023-09-07T04:50:39;7.40;;;6.70;;
17345;SDS011;8790;53.590;10.002;2023-09-07T04:53:10;7.72;;;6.68;;
17345;SDS011;8790;53.590;10.002;2023-09-07T04:55:43;9.10;;;6.82;;
17345;SDS011;8790;53.590;10.002;2023-09-07T04:58:15;7.72;;;6.97;;
17345;SDS011;8790;53.590;10.002;2023-09-07T05:00:46;7.40;;;6.70;;
17345;SDS011;8790;53.590;10.002;2023-09-07T05:03:18;7.55;;;6.75;;
17345;SDS011;8790;53.590;10.002;2023-09-07T05:05:50;7.32;;;6.63;;
17345;SDS011;8790;53.590;10.002;2023-09-07T05:08:24;7.43;;;6.72;;
17345;SDS011;8790;53.590;10.002;2023-09-07T05:10:58;7.93;;;7.13;;
17345;SDS011;8790;53.590;10.002;2023-09-07T05:13:30;7.82;;;7.03;;
17345;SDS011;8790;53.590;10.002;2023-09-07T05:16:04;7.75;;;6.93;;
17345;SDS011;8790;53.590;10.002;2023-09-07T05:18:37;8.85;;;6.95;;
17345;SDS011;8790;53.590;10.002;2023-09-07T05:21:13;7.55;;;6.78;;
17345;SDS011;8790;53.590;10.002;2023-09-07T05:23:46;8.95;;;7.05;;
17345;SDS011;8790;53.590;10.002;2023-09-07T05:26:21;7.97;;;7.18;;
17345;SDS011;8790;53.590;10.002;2023-09-07T05:28:55;8.60;;;7.80;;
17345;SDS011;8790;53.590;10.002;2023-09-07T05:31:26;7.70;;;6.93;;
17345;SDS011;8790;53.590;10.002;2023-09-07T05:33:58;8.32;;;7.53;;
17345;SDS011;8790;53.590;10.002;2023-09-07T05:36:30;9.00;;;7.40;;
17345;SDS011;8790;53.590;10.002;2023-09-07T05:39:02;8.38;;;7.50;;
17345;SDS011;8790;53.590;10.002;2023-09-07T05:41:35;8.13;;;7.32;;
17345;SDS011;8790;53.590;10.002;2023-09-07T05:44:08;7.85;;;7.10;;
17345;SDS011;8790;53.590;10.002;2023-09-07T05:46:39;8.18;;;7.38;;
17345;SDS011;8790;53.590;10.002;2023-09-07T05:49:12;15.93;;;13.50;;
17345;SDS011;8790;53.590;10.002;2023-09-07T05:51:44;20.00;;;16.98;;
17345;SDS011;8790;53.590;10.002;2023-09-07T05:54:15;10.25;;;8.50;;
17345;SDS011;8790;53.590;10.002;2023-09-07T05:56:48;9.10;;;8.13;;
17345;SDS011;8790;53.590;10.002;2023-09-07T05:59:19;8.23;;;7.40;;
17345;SDS011;8790;53.590;10.002;2023-09-07T06:01:51;9.23;;;7.40;;
17345;SDS011;8790;53.590;10.002;2023-09-07T06:04:22;8.07;;;7.15;;
17345;SDS011;8790;53.590;10.002;2023-09-07T06:06:54;10.35;;;7.15;;
17345;SDS011;8790;53.590;10.002;2023-09-07T06:09:26;8.18;;;7.38;;
17345;SDS011;8790;53.590;10.002;2023-09-07T06:11:59;8.45;;;7.65;;
17345;SDS011;8790;53.590;10.002;2023-09-07T06:14:30;8.52;;;7.72;;
17345;SDS011;8790;53.590;10.002;2023-09-07T06:17:01;8.45;;;7.15;;
17345;SDS011;8790;53.590;10.002;2023-09-07T06:19:33;7.85;;;7.15;;
17345;SDS011;8790;53.590;10.002;2023-09-07T06:22:05;8.35;;;7.50;;
17345;SDS011;8790;53.590;10.002;2023-09-07T06:24:36;8.20;;;7.35;;
17345;SDS011;8790;53.590;10.002;2023-09-07T06:27:09;8.25;;;7.45;;
17345;SDS011;8790;53.590;10.002;2023-09-07T06:29:40;8.13;;;7.32;;
17345;SDS011;8790;53.590;10.002;2023-09-07T06:32:12;8.43;;;7.53;;
17345;SDS011;8790;53.590;10.002;2023-09-07T06:34:44;9.60;;;7.82;;
17345;SDS011;8790;53.590;10.002;2023-09-07T06:37:16;7.90;;;7.18;;
17345;SDS011;8790;53.590;10.002;2023-09-07T06:39:48;9.57;;;7.53;;
17345;SDS011;8790;53.590;10.002;2023-09-07T06:42:21;7.95;;;7.15;;
17345;SDS011;8790;53.590;10.002;2023-09-07T06:45:01;7.70;;;7.00;;
17345;SDS011;8790;53.590;10.002;2023-09-07T06:47:33;9.07;;;7.65;;
17345;SDS011;8790;53.590;10.002;2023-09-07T06:50:05;8.07;;;7.28;;
17345;SDS011;8790;53.590;10.002;2023-09-07T06:52:37;8.30;;;7.50;;
17345;SDS011;8790;53.590;10.002;2023-09-07T06:55:08;7.97;;;7.22;;
17345;SDS011;8790;53.590;10.002;2023-09-07T06:57:41;8.02;;;7.13;;
17345;SDS011;8790;53.590;10.002;2023-09-07T07:00:13;7.78;;;7.07;;
17345;SDS011;8790;53.590;10.002;2023-09-07T07:02:45;8.27;;;7.50;;
17345;SDS011;8790;53.590;10.002;2023-09-07T07:05:17;8.60;;;7.03;;
17345;SDS011;8790;53.590;10.002;2023-09-07T07:07:50;8.52;;;6.75;;
17345;SDS011;8790;53.590;10.002;2023-09-07T07:10:22;8.02;;;7.00;;
17345;SDS011;8790;53.590;10.002;2023-09-07T07:12:55;7.40;;;6.78;;
17345;SDS011;8790;53.590;10.002;2023-09-07T07:15:26;7.82;;;6.95;;
17345;SDS011;8790;53.590;10.002;2023-09-07T07:17:58;8.13;;;7.30;;
17345;SDS011;8790;53.590;10.002;2023-09-07T07:20:29;7.90;;;7.15;;
17345;SDS011;8790;53.590;10.002;2023-09-07T07:23:00;7.68;;;6.97;;
17345;SDS011;8790;53.590;10.002;2023-09-07T07:25:32;8.38;;;7.43;;
17345;SDS011;8790;53.590;10.002;2023-09-07T07:28:06;7.72;;;6.97;;
17345;SDS011;8790;53.590;10.002;2023-09-07T07:30:39;7.88;;;6.97;;
17345;SDS011;8790;53.590;10.002;2023-09-07T07:33:11;8.35;;;6.88;;
17345;SDS011;8790;53.590;10.002;2023-09-07T07:35:43;7.90;;;6.82;;
17345;SDS011;8790;53.590;10.002;2023-09-07T07:38:15;7.03;;;6.32;;
17345;SDS011;8790;53.590;10.002;2023-09-07T07:40:47;7.88;;;7.05;;
17345;SDS011;8790;53.590;10.002;2023-09-07T07:43:22;10.35;;;7.25;;
17345;SDS011;8790;53.590;10.002;2023-09-07T07:45:53;7.70;;;6.90;;
17345;SDS011;8790;53.590;10.002;2023-09-07T07:48:26;7.43;;;6.72;;
17345;SDS011;8790;53.590;10.002;2023-09-07T07:51:02;7.45;;;6.70;;
17345;SDS011;8790;53.590;10.002;2023-09-07T07:53:34;7.68;;;6.75;;
17345;SDS011;8790;53.590;10.002;2023-09-07T07:56:05;7.35;;;6.63;;
17345;SDS011;8790;53.590;10.002;2023-09-07T07:58:38;7.10;;;6.22;;
17345;SDS011;8790;53.590;10.002;2023-09-07T08:01:13;7.05;;;6.45;;
17345;SDS011;8790;53.590;10.002;2023-09-07T08:03:45;7.22;;;6.53;;
17345;SDS011;8790;53.590;10.002;2023-09-07T08:06:17;7.43;;;6.72;;
17345;SDS011;8790;53.590;10.002;2023-09-07T08:08:50;7.22;;;6.53;;
17345;SDS011;8790;53.590;10.002;2023-09-07T08:11:21;7.30;;;6.55;;
17345;SDS011;8790;53.590;10.002;2023-09-07T08:13:57;6.57;;;5.97;;
17345;SDS011;8790;53.590;10.002;2023-09-07T08:16:29;7.10;;;6.50;;
17345;SDS011;8790;53.590;10.002;2023-09-07T08:19:00;7.82;;;6.95;;
17345;SDS011;8790;53.590;10.002;2023-09-07T08:21:34;7.57;;;6.40;;
17345;SDS011;8790;53.590;10.002;2023-09-07T08:24:07;8.65;;;6.45;;
17345;SDS011;8790;53.590;10.002;2023-09-07T08:26:38;7.00;;;6.30;;
17345;SDS011;8790;53.590;10.002;2023-09-07T08:29:11;7.07;;;6.38;;
17345;SDS011;8790;53.590;10.002;2023-09-07T08:31:43;7.45;;;6.40;;
17345;SDS011;8790;53.590;10.002;2023-09-07T08:34:15;6.55;;;5.95;;
17345;SDS011;8790;53.590;10.002;2023-09-07T08:36:47;7.22;;;6.53;;
17345;SDS011;8790;53.590;10.002;2023-09-07T08:39:20;7.05;;;6.10;;
17345;SDS011;8790;53.590;10.002;2023-09-07T08:41:52;7.55;;;6.32;;
17345;SDS011;8790;53.590;10.002;2023-09-07T08:44:25;6.53;;;5.93;;
17345;SDS011;8790;53.590;10.002;2023-09-07T08:46:58;6.80;;;6.20;;
17345;SDS011;8790;53.590;10.002;2023-09-07T08:49:31;7.07;;;6.35;;
17345;SDS011;8790;53.590;10.002;2023-09-07T08:52:03;7.40;;;6.70;;
17345;SDS011;8790;53.590;10.002;2023-09-07T08:54:37;6.57;;;5.97;;
17345;SDS011;8790;53.590;10.002;2023-09-07T08:57:08;6.55;;;5.93;;
17345;SDS011;8790;53.590;10.002;2023-09-07T08:59:42;6.95;;;6.25;;
17345;SDS011;8790;53.590;10.002;2023-09-07T09:02:13;6.80;;;5.90;;
17345;SDS011;8790;53.590;10.002;2023-09-07T09:04:46;8.02;;;5.95;;
17345;SDS011;8790;53.590;10.002;2023-09-07T09:07:19;7.00;;;6.30;;
17345;SDS011;8790;53.590;10.002;2023-09-07T09:09:51;6.40;;;5.88;;
17345;SDS011;8790;53.590;10.002;2023-09-07T09:12:22;8.82;;;6.35;;
17345;SDS011;8790;53.590;10.002;2023-09-07T09:14:55;7.55;;;6.47;;
17345;SDS011;8790;53.590;10.002;2023-09-07T09:17:26;6.90;;;6.25;;
17345;SDS011;8790;53.590;10.002;2023-09-07T09:19:57;7.65;;;5.85;;
17345;SDS011;8790;53.590;10.002;2023-09-07T09:22:29;6.28;;;5.75;;
17345;SDS011;8790;53.590;10.002;2023-09-07T09:25:02;6.60;;;5.88;;
17345;SDS011;8790;53.590;10.002;2023-09-07T09:27:35;6.47;;;5.88;;
17345;SDS011;8790;53.590;10.002;2023-09-07T09:30:09;7.97;;;6.35;;
17345;SDS011;8790;53.590;10.002;2023-09-07T09:32:40;6.63;;;5.93;;
17345;SDS011;8790;53.590;10.002;2023-09-07T09:35:12;6.32;;;5.72;;
17345;SDS011;8790;53.590;10.002;2023-09-07T09:37:48;7.78;;;5.97;;
17345;SDS011;8790;53.590;10.002;2023-09-07T09:40:19;6.80;;;5.95;;
17345;SDS011;8790;53.590;10.002;2023-09-07T09:42:51;6.70;;;6.07;;
17345;SDS011;8790;53.590;10.002;2023-09-07T09:45:24;6.90;;;5.93;;
17345;SDS011;8790;53.590;10.002;2023-09-07T09:47:57;6.25;;;5.65;;
17345;SDS011;8790;53.590;10.002;2023-09-07T09:50:30;6.75;;;5.90;;
17345;SDS011;8790;53.590;10.002;2023-09-07T09:53:05;7.15;;;5.80;;
17345;SDS011;8790;53.590;10.002;2023-09-07T09:55:37;5.95;;;5.30;;
17345;SDS011;8790;53.590;10.002;2023-09-07T09:58:09;5.35;;;4.93;;
17345;SDS011;8790;53.590;10.002;2023-09-07T10:00:43;5.90;;;5.30;;
17345;SDS011;8790;53.590;10.002;2023-09-07T10:03:16;6.10;;;5.38;;
17345;SDS011;8790;53.590;10.002;2023-09-07T10:05:50;6.72;;;6.07;;
17345;SDS011;8790;53.590;10.002;2023-09-07T10:08:21;7.15;;;5.65;;
17345;SDS011;8790;53.590;10.002;2023-09-07T10:10:53;7.82;;;5.63;;
17345;SDS011;8790;53.590;10.002;2023-09-07T10:13:28;10.68;;;5.47;;
17345;SDS011;8790;53.590;10.002;2023-09-07T10:16:02;5.90;;;5.40;;
17345;SDS011;8790;53.590;10.002;2023-09-07T10:18:37;5.75;;;5.15;;
17345;SDS011;8790;53.590;10.002;2023-09-07T10:21:09;5.20;;;4.70;;
17345;SDS011;8790;53.590;10.002;2023-09-07T10:23:41;5.35;;;4.85;;
17345;SDS011;8790;53.590;10.002;2023-09-07T10:26:16;5.45;;;4.95;;
17345;SDS011;8790;53.590;10.002;2023-09-07T10:28:57;6.43;;;4.85;;
17345;SDS011;8790;53.590;10.002;2023-09-07T10:31:31;5.50;;;4.88;;
17345;SDS011;8790;53.590;10.002;2023-09-07T10:34:09;5.30;;;4.60;;
17345;SDS011;8790;53.590;10.002;2023-09-07T10:36:42;5.00;;;4.50;;
17345;SDS011;8790;53.590;10.002;2023-09-07T10:39:13;6.63;;;4.60;;
17345;SDS011;8790;53.590;10.002;2023-09-07T10:41:45;7.63;;;4.80;;
17345;SDS011;8790;53.590;10.002;2023-09-07T10:44:16;5.95;;;4.65;;
17345;SDS011;8790;53.590;10.002;2023-09-07T10:46:57;7.10;;;5.57;;
17345;SDS011;8790;53.590;10.002;2023-09-07T10:49:29;6.47;;;5.43;;
17345;SDS011;8790;53.590;10.002;2023-09-07T10:52:00;5.43;;;4.95;;
17345;SDS011;8790;53.590;10.002;2023-09-07T10:54:31;5.07;;;4.60;;
17345;SDS011;8790;53.590;10.002;2023-09-07T10:57:07;5.28;;;4.47;;
17345;SDS011;8790;53.590;10.002;2023-09-07T10:59:43;5.22;;;4.72;;
17345;SDS011;8790;53.590;10.002;2023-09-07T11:02:16;8.77;;;4.80;;
17345;SDS011;8790;53.590;10.002;2023-09-07T11:04:48;5.53;;;4.75;;
17345;SDS011;8790;53.590;10.002;2023-09-07T11:07:19;5.05;;;4.65;;
17345;SDS011;8790;53.590;10.002;2023-09-07T11:09:51;6.32;;;5.22;;
17345;SDS011;8790;53.590;10.002;2023-09-07T11:12:22;6.25;;;5.22;;
17345;SDS011;8790;53.590;10.002;2023-09-07T11:14:54;8.20;;;5.28;;
17345;SDS011;8790;53.590;10.002;2023-09-07T11:17:27;5.63;;;4.50;;
17345;SDS011;8790;53.590;10.002;2023-09-07T11:19:58;5.88;;;4.15;;
17345;SDS011;8790;53.590;10.002;2023-09-07T11:22:35;4.95;;;4.45;;
17345;SDS011;8790;53.590;10.002;2023-09-07T11:25:08;4.78;;;4.38;;
17345;SDS011;8790;53.590;10.002;2023-09-07T11:27:39;5.07;;;4.13;;
17345;SDS011;8790;53.590;10.002;2023-09-07T11:30:11;4.57;;;4.18;;
17345;SDS011;8790;53.590;10.002;2023-09-07T11:32:44;4.38;;;4.07;;
17345;SDS011;8790;53.590;10.002;2023-09-07T11:35:16;5.68;;;3.58;;
17345;SDS011;8790;53.590;10.002;2023-09-07T11:37:51;4.43;;;4.03;;
17345;SDS011;8790;53.590;10.002;2023-09-07T11:40:22;5.07;;;4.18;;
17345;SDS011;8790;53.590;10.002;2023-09-07T11:42:54;5.88;;;3.85;;
17345;SDS011;8790;53.590;10.002;2023-09-07T11:45:25;4.53;;;4.13;;
17345;SDS011;8790;53.590;10.002;2023-09-07T11:47:58;4.40;;;4.00;;
17345;SDS011;8790;53.590;10.002;2023-09-07T11:50:30;5.07;;;4.40;;
17345;SDS011;8790;53.590;10.002;2023-09-07T11:53:02;5.18;;;4.68;;
17345;SDS011;8790;53.590;10.002;2023-09-07T11:55:33;5.13;;;4.40;;
17345;SDS011;8790;53.590;10.002;2023-09-07T11:58:05;4.80;;;4.32;;
17345;SDS011;8790;53.590;10.002;2023-09-07T12:00:37;4.95;;;4.20;;
17345;SDS011;8790;53.590;10.002;2023-09-07T12:03:09;5.13;;;4.35;;
17345;SDS011;8790;53.590;10.002;2023-09-07T12:05:41;5.25;;;4.20;;
17345;SDS011;8790;53.590;10.002;2023-09-07T12:08:14;5.03;;;4.15;;
17345;SDS011;8790;53.590;10.002;2023-09-07T12:10:45;5.10;;;4.47;;
17345;SDS011;8790;53.590;10.002;2023-09-07T12:13:17;5.18;;;4.68;;
17345;SDS011;8790;53.590;10.002;2023-09-07T12:15:48;4.72;;;4.13;;
17345;SDS011;8790;53.590;10.002;2023-09-07T12:18:22;4.85;;;4.35;;
17345;SDS011;8790;53.590;10.002;2023-09-07T12:20:54;4.43;;;4.03;;
17345;SDS011;8790;53.590;10.002;2023-09-07T12:23:25;5.20;;;4.32;;
17345;SDS011;8790;53.590;10.002;2023-09-07T12:25:57;5.05;;;4.65;;
17345;SDS011;8790;53.590;10.002;2023-09-07T12:28:28;5.07;;;4.55;;
17345;SDS011;8790;53.590;10.002;2023-09-07T12:31:00;4.97;;;4.57;;
17345;SDS011;8790;53.590;10.002;2023-09-07T12:33:32;6.57;;;4.65;;
17345;SDS011;8790;53.590;10.002;2023-09-07T12:36:04;5.18;;;4.68;;
17345;SDS011;8790;53.590;10.002;2023-09-07T12:38:39;5.40;;;4.90;;
17345;SDS011;8790;53.590;10.002;2023-09-07T12:41:10;4.97;;;4.50;;
17345;SDS011;8790;53.590;10.002;2023-09-07T12:43:42;4.43;;;4.03;;
17345;SDS011;8790;53.590;10.002;2023-09-07T12:46:13;6.45;;;4.22;;
17345;SDS011;8790;53.590;10.002;2023-09-07T12:48:46;5.43;;;4.07;;
17345;SDS011;8790;53.590;10.002;2023-09-07T12:51:17;4.38;;;3.97;;
17345;SDS011;8790;53.590;10.002;2023-09-07T12:53:49;4.47;;;3.80;;
17345;SDS011;8790;53.590;10.002;2023-09-07T12:56:21;4.43;;;4.03;;
17345;SDS011;8790;53.590;10.002;2023-09-07T12:58:52;5.65;;;4.30;;
17345;SDS011;8790;53.590;10.002;2023-09-07T13:01:24;4.60;;;3.80;;
17345;SDS011;8790;53.590;10.002;2023-09-07T13:03:57;5.15;;;4.18;;
17345;SDS011;8790;53.590;10.002;2023-09-07T13:06:28;5.60;;;4.45;;
17345;SDS011;8790;53.590;10.002;2023-09-07T13:08:59;4.50;;;3.92;;
17345;SDS011;8790;53.590;10.002;2023-09-07T13:11:31;6.60;;;4.40;;
17345;SDS011;8790;53.590;10.002;2023-09-07T13:14:03;4.68;;;4.20;;
17345;SDS011;8790;53.590;10.002;2023-09-07T13:16:34;4.40;;;4.00;;
17345;SDS011;8790;53.590;10.002;2023-09-07T13:19:07;4.15;;;3.75;;
17345;SDS011;8790;53.590;10.002;2023-09-07T13:21:38;4.82;;;4.13;;
17345;SDS011;8790;53.590;10.002;2023-09-07T13:24:10;5.53;;;3.65;;
17345;SDS011;8790;53.590;10.002;2023-09-07T13:26:41;6.38;;;3.72;;
17345;SDS011;8790;53.590;10.002;2023-09-07T13:29:12;4.10;;;3.70;;
17345;SDS011;8790;53.590;10.002;2023-09-07T13:31:44;5.10;;;3.88;;
17345;SDS011;8790;53.590;10.002;2023-09-07T13:34:16;5.00;;;4.25;;
17345;SDS011;8790;53.590;10.002;2023-09-07T13:36:48;4.65;;;4.15;;
17345;SDS011;8790;53.590;10.002;2023-09-07T13:39:19;4.57;;;3.90;;
17345;SDS011;8790;53.590;10.002;2023-09-07T13:41:51;4.75;;;4.35;;
17345;SDS011;8790;53.590;10.002;2023-09-07T13:44:22;4.20;;;3.85;;
17345;SDS011;8790;53.590;10.002;2023-09-07T13:46:54;4.22;;;3.83;;
17345;SDS011;8790;53.590;10.002;2023-09-07T13:49:27;5.07;;;3.95;;
17345;SDS011;8790;53.590;10.002;2023-09-07T13:51:58;4.43;;;4.03;;
17345;SDS011;8790;53.590;10.002;2023-09-07T13:54:29;4.95;;;4.45;;
17345;SDS011;8790;53.590;10.002;2023-09-07T13:57:01;4.90;;;4.03;;
17345;SDS011;8790;53.590;10.002;2023-09-07T13:59:33;4.05;;;3.70;;
17345;SDS011;8790;53.590;10.002;2023-09-07T14:02:06;4.50;;;4.10;;
17345;SDS011;8790;53.590;10.002;2023-09-07T14:04:38;3.97;;;3.58;;
17345;SDS011;8790;53.590;10.002;2023-09-07T14:07:10;4.30;;;3.90;;
17345;SDS011;8790;53.590;10.002;2023-09-07T14:09:42;3.70;;;3.40;;
17345;SDS011;8790;53.590;10.002;2023-09-07T14:12:14;4.30;;;3.90;;
17345;SDS011;8790;53.590;10.002;2023-09-07T14:14:45;3.05;;;2.75;;
17345;SDS011;8790;53.590;10.002;2023-09-07T14:17:16;3.85;;;3.55;;
17345;SDS011;8790;53.590;10.002;2023-09-07T14:19:49;4.03;;;3.55;;
17345;SDS011;8790;53.590;10.002;2023-09-07T14:22:20;4.35;;;3.00;;
17345;SDS011;8790;53.590;10.002;2023-09-07T14:24:52;3.72;;;3.40;;
17345;SDS011;8790;53.590;10.002;2023-09-07T14:27:23;4.35;;;3.03;;
17345;SDS011;8790;53.590;10.002;2023-09-07T14:29:56;4.10;;;3.70;;
17345;SDS011;8790;53.590;10.002;2023-09-07T14:32:27;4.43;;;3.30;;
17345;SDS011;8790;53.590;10.002;2023-09-07T14:35:00;4.00;;;3.55;;
17345;SDS011;8790;53.590;10.002;2023-09-07T14:37:31;5.25;;;3.90;;
17345;SDS011;8790;53.590;10.002;2023-09-07T14:40:03;3.78;;;3.38;;
17345;SDS011;8790;53.590;10.002;2023-09-07T14:42:37;3.63;;;3.33;;
17345;SDS011;8790;53.590;10.002;2023-09-07T14:45:10;5.38;;;3.33;;
17345;SDS011;8790;53.590;10.002;2023-09-07T14:47:41;4.18;;;3.63;;
17345;SDS011;8790;53.590;10.002;2023-09-07T14:50:14;4.93;;;3.58;;
17345;SDS011;8790;53.590;10.002;2023-09-07T14:52:45;3.40;;;3.10;;
17345;SDS011;8790;53.590;10.002;2023-09-07T14:55:17;3.25;;;2.92;;
17345;SDS011;8790;53.590;10.002;2023-09-07T14:57:49;3.00;;;2.80;;
17345;SDS011;8790;53.590;10.002;2023-09-07T15:00:20;4.75;;;3.35;;
17345;SDS011;8790;53.590;10.002;2023-09-07T15:02:53;4.68;;;3.58;;
17345;SDS011;8790;53.590;10.002;2023-09-07T15:05:26;3.90;;;3.17;;
17345;SDS011;8790;53.590;10.002;2023-09-07T15:07:58;4.85;;;3.05;;
17345;SDS011;8790;53.590;10.002;2023-09-07T15:10:32;4.07;;;3.67;;
17345;SDS011;8790;53.590;10.002;2023-09-07T15:13:04;4.72;;;3.50;;
17345;SDS011;8790;53.590;10.002;2023-09-07T15:15:37;4.60;;;3.97;;
17345;SDS011;8790;53.590;10.002;2023-09-07T15:18:10;5.95;;;3.85;;